createdAt,value
2022-10-12T00:02:11.928Z,101579.03
2022-10-12T00:04:41.505Z,101578.19
2022-10-12T00:07:11.057Z,101573.06
2022-10-12T00:09:41.366Z,101583.53
2022-10-12T00:12:13.595Z,101581.81
2022-10-12T00:14:43.265Z,101584.44
2022-10-12T00:17:12.904Z,101580.09
2022-10-12T00:19:42.477Z,101575.72
2022-10-12T00:22:12.090Z,101576.59
2022-10-12T00:24:42.995Z,101577.50
2022-10-12T00:27:15.259Z,101576.63
2022-10-12T00:29:44.793Z,101581.00
2022-10-12T00:32:14.289Z,101573.16
2022-10-12T00:34:43.918Z,101574.91
2022-10-12T00:37:13.466Z,101581.03
2022-10-12T00:39:43.000Z,101584.53
2022-10-12T00:42:16.373Z,101585.44
2022-10-12T00:44:48.134Z,101587.19
2022-10-12T00:47:25.261Z,101585.47
2022-10-12T00:49:59.746Z,101577.63
2022-10-12T00:52:34.219Z,101582.84
2022-10-12T00:55:04.080Z,101584.59
2022-10-12T00:57:36.749Z,101581.09
2022-10-12T01:00:10.120Z,101585.50
2022-10-12T01:02:41.422Z,101587.22
2022-10-12T01:05:12.498Z,101585.53
2022-10-12T01:07:42.354Z,101582.06
2022-10-12T01:10:12.567Z,101585.53
2022-10-12T01:12:46.037Z,101580.31
2022-10-12T01:15:16.342Z,101575.97
2022-10-12T01:17:52.483Z,101567.25
2022-10-12T01:20:52.179Z,101569.00
2022-10-12T01:23:47.147Z,101575.97
2022-10-12T01:27:01.811Z,101566.41
2022-10-12T01:30:03.608Z,101569.91
2022-10-12T01:32:38.974Z,101563.84
2022-10-12T01:35:11.042Z,101562.09
2022-10-12T01:37:48.444Z,101557.72
2022-10-12T01:40:21.848Z,101547.25
2022-10-12T01:42:51.683Z,101550.75
2022-10-12T01:45:22.588Z,101548.13
2022-10-12T01:47:56.564Z,101544.63
2022-10-12T01:50:30.901Z,101545.53
2022-10-12T01:53:06.503Z,101540.31
2022-10-12T01:55:40.927Z,101536.84
2022-10-12T01:58:20.643Z,101535.97
2022-10-12T02:00:58.507Z,101538.59
2022-10-12T02:03:37.902Z,101530.75
2022-10-12T02:06:10.428Z,101538.56
2022-10-12T02:08:44.281Z,101535.97
2022-10-12T02:11:15.982Z,101545.53
2022-10-12T02:13:47.024Z,101539.44
2022-10-12T02:16:18.884Z,101549.03
2022-10-12T02:18:53.572Z,101539.47
2022-10-12T02:21:26.625Z,101535.97
2022-10-12T02:23:57.147Z,101536.88
2022-10-12T02:26:26.840Z,101535.16
2022-10-12T02:28:56.187Z,101530.75
2022-10-12T02:31:27.539Z,101534.25
2022-10-12T02:34:00.741Z,101528.16
2022-10-12T02:36:31.629Z,101522.06
2022-10-12T02:39:02.656Z,101515.09
2022-10-12T02:41:32.600Z,101510.75
2022-10-12T02:44:02.674Z,101505.50
2022-10-12T02:46:32.041Z,101509.88
2022-10-12T02:49:03.937Z,101504.66
2022-10-12T02:51:33.190Z,101495.94
2022-10-12T02:54:02.531Z,101490.75
2022-10-12T02:56:31.836Z,101485.53
2022-10-12T02:59:01.168Z,101495.09
2022-10-12T03:01:30.549Z,101489.03
2022-10-12T03:03:59.943Z,101494.25
2022-10-12T03:06:31.812Z,101494.25
2022-10-12T03:09:01.708Z,101489.03
2022-10-12T03:11:31.385Z,101490.78
2022-10-12T03:14:00.836Z,101489.91
2022-10-12T03:16:30.123Z,101491.66
2022-10-12T03:18:59.636Z,101487.31
2022-10-12T03:21:31.822Z,101489.06
2022-10-12T03:24:01.351Z,101489.94
2022-10-12T03:26:30.939Z,101479.47
2022-10-12T03:29:00.468Z,101479.50
2022-10-12T03:31:30.104Z,101472.53
2022-10-12T03:33:59.674Z,101476.03
2022-10-12T03:36:32.269Z,101468.19
2022-10-12T03:39:01.862Z,101471.69
2022-10-12T03:41:31.389Z,101476.03
2022-10-12T03:44:01.468Z,101476.94
2022-10-12T03:46:30.996Z,101477.78
2022-10-12T03:49:00.601Z,101475.16
2022-10-12T03:51:32.773Z,101478.69
2022-10-12T03:54:02.292Z,101469.97
2022-10-12T03:56:31.842Z,101468.25
2022-10-12T03:59:01.422Z,101470.84
2022-10-12T04:01:31.005Z,101472.59
2022-10-12T04:04:00.706Z,101473.47
2022-10-12T04:06:32.860Z,101465.66
2022-10-12T04:09:02.496Z,101468.25
2022-10-12T04:11:31.996Z,101468.25
2022-10-12T04:14:01.572Z,101466.53
2022-10-12T04:16:31.351Z,101471.75
2022-10-12T04:19:00.992Z,101469.16
2022-10-12T04:21:34.284Z,101465.66
2022-10-12T04:24:03.963Z,101461.31
2022-10-12T04:26:33.664Z,101464.81
2022-10-12T04:29:03.202Z,101468.28
2022-10-12T04:31:32.855Z,101461.34
2022-10-12T04:34:02.389Z,101465.66
2022-10-12T04:36:34.561Z,101466.53
2022-10-12T04:39:04.358Z,101461.28
2022-10-12T04:41:33.998Z,101457.81
2022-10-12T04:44:03.570Z,101460.44
2022-10-12T04:46:33.126Z,101460.44
2022-10-12T04:49:02.699Z,101460.44
2022-10-12T04:51:34.839Z,101453.47
2022-10-12T04:54:04.562Z,101456.97
2022-10-12T04:56:34.112Z,101459.56
2022-10-12T04:59:03.639Z,101458.69
2022-10-12T05:01:33.223Z,101461.28
2022-10-12T05:04:03.078Z,101463.91
2022-10-12T05:06:35.195Z,101461.28
2022-10-12T05:09:04.808Z,101455.19
2022-10-12T05:11:34.354Z,101455.19
2022-10-12T05:14:03.915Z,101447.34
2022-10-12T05:16:33.452Z,101440.38
2022-10-12T05:19:02.985Z,101443.88
2022-10-12T05:21:35.109Z,101448.22
2022-10-12T05:24:04.630Z,101446.50
2022-10-12T05:26:34.162Z,101449.94
2022-10-12T05:29:03.839Z,101453.44
2022-10-12T05:31:33.569Z,101454.28
2022-10-12T05:34:03.131Z,101452.53
2022-10-12T05:36:35.279Z,101456.03
2022-10-12T05:39:04.858Z,101454.31
2022-10-12T05:41:34.431Z,101449.94
2022-10-12T05:44:04.009Z,101448.22
2022-10-12T05:46:33.581Z,101450.81
2022-10-12T05:49:03.253Z,101456.91
2022-10-12T05:51:35.494Z,101461.28
2022-10-12T05:54:05.137Z,101461.28
2022-10-12T05:56:34.696Z,101469.97
2022-10-12T05:59:04.230Z,101469.97
2022-10-12T06:01:34.118Z,101473.47
2022-10-12T06:04:03.793Z,101476.94
2022-10-12T06:06:35.935Z,101471.72
2022-10-12T06:09:05.448Z,101472.59
2022-10-12T06:11:36.456Z,101476.09
2022-10-12T06:14:06.417Z,101477.84
2022-10-12T06:16:36.118Z,101476.94
2022-10-12T06:19:05.651Z,101479.56
2022-10-12T06:21:37.747Z,101470.00
2022-10-12T06:24:07.683Z,101472.63
2022-10-12T06:26:37.834Z,101474.38
2022-10-12T06:29:07.549Z,101475.22
2022-10-12T06:31:38.352Z,101468.25
2022-10-12T06:34:08.968Z,101467.41
2022-10-12T06:36:41.100Z,101474.38
2022-10-12T06:39:12.163Z,101481.28
2022-10-12T06:41:41.752Z,101479.59
2022-10-12T06:44:11.883Z,101489.16
2022-10-12T06:46:41.441Z,101487.41
2022-10-12T06:49:11.025Z,101488.25
2022-10-12T06:51:43.191Z,101481.31
2022-10-12T06:54:12.816Z,101476.94
2022-10-12T06:56:43.239Z,101478.72
2022-10-12T06:59:14.382Z,101478.72
2022-10-12T07:01:43.941Z,101480.44
2022-10-12T07:04:13.670Z,101482.19
2022-10-12T07:06:45.852Z,101482.16
2022-10-12T07:09:15.340Z,101472.59
2022-10-12T07:11:44.876Z,101469.13
2022-10-12T07:14:14.421Z,101472.59
2022-10-12T07:16:44.072Z,101467.34
2022-10-12T07:19:13.649Z,101463.91
2022-10-12T07:21:45.918Z,101471.69
2022-10-12T07:24:15.854Z,101466.47
2022-10-12T07:26:45.416Z,101469.94
2022-10-12T07:29:14.936Z,101468.19
2022-10-12T07:31:48.483Z,101462.97
2022-10-12T07:34:21.405Z,101460.34
2022-10-12T07:36:59.540Z,101464.69
2022-10-12T07:39:29.711Z,101469.03
2022-10-12T07:41:59.274Z,101457.69
2022-10-12T07:44:30.502Z,101462.88
2022-10-12T07:47:00.033Z,101447.19
2022-10-12T07:49:29.752Z,101449.78
2022-10-12T07:52:01.970Z,101453.25
2022-10-12T07:54:32.841Z,101460.16
2022-10-12T07:57:02.427Z,101453.13
2022-10-12T07:59:32.172Z,101453.94
2022-10-12T08:02:01.808Z,101452.13
2022-10-12T08:04:31.550Z,101452.06
2022-10-12T08:07:03.717Z,101454.63
2022-10-12T08:09:35.950Z,101455.41
2022-10-12T08:12:06.018Z,101447.41
2022-10-12T08:14:35.577Z,101447.38
2022-10-12T08:17:05.406Z,101444.66
2022-10-12T08:19:35.542Z,101449.81
2022-10-12T08:22:07.776Z,101448.78
2022-10-12T08:24:38.274Z,101445.16
2022-10-12T08:27:07.868Z,101457.22
2022-10-12T08:29:37.354Z,101452.72
2022-10-12T08:32:07.410Z,101456.00
2022-10-12T08:34:36.976Z,101452.41
2022-10-12T08:37:09.095Z,101456.59
2022-10-12T08:39:38.664Z,101449.41
2022-10-12T08:42:16.808Z,101434.34
2022-10-12T08:45:04.386Z,101442.06
2022-10-12T08:47:38.875Z,101425.28
2022-10-12T08:50:14.199Z,101426.88
2022-10-12T08:52:52.268Z,101430.16
2022-10-12T08:55:27.841Z,101426.47
2022-10-12T08:57:57.376Z,101420.91
2022-10-12T09:00:27.368Z,101422.44
2022-10-12T09:03:07.709Z,101425.81
2022-10-12T09:05:40.677Z,101422.13
2022-10-12T09:08:17.627Z,101428.06
2022-10-12T09:10:49.684Z,101423.50
2022-10-12T09:13:36.712Z,101419.84
2022-10-12T09:16:09.244Z,101418.03
2022-10-12T09:18:42.622Z,101426.53
2022-10-12T09:21:16.558Z,101418.31
2022-10-12T09:23:49.715Z,101421.44
2022-10-12T09:26:21.479Z,101423.88
2022-10-12T09:28:54.208Z,101421.84
2022-10-12T09:31:34.685Z,101418.91
2022-10-12T09:34:06.943Z,101418.59
2022-10-12T09:36:39.363Z,101420.06
2022-10-12T09:39:18.327Z,101419.81
2022-10-12T09:41:49.539Z,101429.34
2022-10-12T09:44:24.564Z,101421.25
2022-10-12T09:46:58.688Z,101425.47
2022-10-12T09:49:42.204Z,101412.09
2022-10-12T09:52:12.425Z,101416.06
2022-10-12T09:54:49.926Z,101420.06
2022-10-12T09:57:22.631Z,101416.19
2022-10-12T09:59:52.721Z,101418.38
2022-10-12T10:02:23.777Z,101409.25
2022-10-12T10:04:54.266Z,101409.81
2022-10-12T10:07:30.434Z,101410.47
2022-10-12T10:10:19.089Z,101410.84
2022-10-12T10:12:52.716Z,101406.78
2022-10-12T10:15:25.636Z,101406.16
2022-10-12T10:17:56.824Z,101406.53
2022-10-12T10:20:30.337Z,101406.88
2022-10-12T10:23:00.460Z,101405.66
2022-10-12T10:25:32.746Z,101400.44
2022-10-12T10:28:24.277Z,101408.38
2022-10-12T10:31:03.345Z,101398.16
2022-10-12T10:33:33.813Z,101400.31
2022-10-12T10:36:06.277Z,101397.75
2022-10-12T10:38:40.728Z,101390.16
2022-10-12T10:41:19.719Z,101397.72
2022-10-12T10:43:50.352Z,101387.69
2022-10-12T10:46:25.902Z,101393.44
2022-10-12T10:48:58.935Z,101387.84
2022-10-12T10:51:43.491Z,101376.72
2022-10-12T10:54:18.085Z,101387.69
2022-10-12T10:56:50.872Z,101384.59
2022-10-12T10:59:30.457Z,101381.63
2022-10-12T11:02:06.715Z,101384.88
2022-10-12T11:04:40.607Z,101379.03
2022-10-12T11:07:19.131Z,101376.91
2022-10-12T11:09:51.158Z,101380.31
2022-10-12T11:12:31.345Z,101373.34
2022-10-12T11:15:09.594Z,101378.63
2022-10-12T11:17:43.935Z,101376.44
2022-10-12T11:20:29.972Z,101368.34
2022-10-12T11:23:02.151Z,101375.22
2022-10-12T11:25:34.255Z,101365.03
2022-10-12T11:28:06.606Z,101367.94
2022-10-12T11:30:41.749Z,101359.47
2022-10-12T11:33:15.645Z,101354.53
2022-10-12T11:35:47.616Z,101349.75
2022-10-12T11:38:20.952Z,101351.47
2022-10-12T11:41:13.820Z,101349.56
2022-10-12T11:43:52.288Z,101343.41
2022-10-12T11:46:26.347Z,101343.50
2022-10-12T11:48:59.385Z,101344.41
2022-10-12T11:51:28.929Z,101333.72
2022-10-12T11:54:04.099Z,101337.75
2022-10-12T11:56:37.178Z,101336.16
2022-10-12T11:59:17.018Z,101335.09
2022-10-12T12:01:50.344Z,101336.00
2022-10-12T12:04:43.068Z,101327.75
2022-10-12T12:07:44.916Z,101319.91
2022-10-12T12:10:44.600Z,101323.16
2022-10-12T12:13:23.093Z,101324.47
2022-10-12T12:16:31.570Z,101321.81
2022-10-12T12:19:43.988Z,101328.16
2022-10-12T12:22:23.590Z,101321.22
2022-10-12T12:25:04.333Z,101320.41
2022-10-12T12:27:39.820Z,101315.91
2022-10-12T12:30:25.898Z,101320.13
2022-10-12T12:32:58.037Z,101320.13
2022-10-12T12:35:35.584Z,101308.34
2022-10-12T12:38:25.893Z,101312.63
2022-10-12T12:41:09.719Z,101307.66
2022-10-12T12:43:52.904Z,101311.75
2022-10-12T12:46:23.507Z,101305.75
2022-10-12T12:49:04.493Z,101306.53
2022-10-12T12:51:46.004Z,101301.06
2022-10-12T12:54:19.247Z,101293.63
2022-10-12T12:57:18.186Z,101301.31
2022-10-12T13:00:08.436Z,101298.66
2022-10-12T13:03:01.531Z,101287.84
2022-10-12T13:06:18.928Z,101280.13
2022-10-12T13:09:03.653Z,101270.28
2022-10-12T13:11:43.380Z,101275.22
2022-10-12T13:14:28.276Z,101275.28
2022-10-12T13:20:03.087Z,101267.91
2022-10-12T13:22:35.189Z,101264.41
2022-10-12T13:25:11.106Z,101253.94
2022-10-12T13:27:45.029Z,101255.44
2022-10-12T13:30:29.661Z,101254.50
2022-10-12T13:33:01.946Z,101247.78
2022-10-12T13:35:35.130Z,101247.59
2022-10-12T13:38:06.501Z,101254.63
2022-10-12T13:40:40.948Z,101252.44
2022-10-12T13:43:21.439Z,101239.78
2022-10-12T13:45:52.108Z,101233.88
2022-10-12T13:48:46.405Z,101231.09
2022-10-12T13:51:25.344Z,101216.56
2022-10-12T13:53:54.995Z,101208.81
2022-10-12T13:56:28.492Z,101215.84
2022-10-12T13:59:04.268Z,101215.59
2022-10-12T14:01:36.665Z,101217.88
2022-10-12T14:04:09.307Z,101210.25
2022-10-12T14:06:39.510Z,101202.84
2022-10-12T14:09:11.894Z,101209.81
2022-10-12T14:11:44.762Z,101205.78
2022-10-12T14:14:21.383Z,101200.69
2022-10-12T14:16:58.978Z,101201.81
2022-10-12T14:19:37.497Z,101198.59
2022-10-12T14:22:07.215Z,101202.44
2022-10-12T14:24:38.319Z,101206.25
2022-10-12T14:27:11.375Z,101209.84
2022-10-12T14:29:45.152Z,101205.63
2022-10-12T14:32:44.207Z,101202.19
2022-10-12T14:35:28.199Z,101205.09
2022-10-12T14:37:59.185Z,101203.28
2022-10-12T14:40:41.000Z,101194.63
2022-10-12T14:43:24.451Z,101195.25
2022-10-12T14:45:54.599Z,101194.41
2022-10-12T14:48:24.727Z,101193.78
2022-10-12T14:50:54.520Z,101183.38
2022-10-12T14:53:29.122Z,101181.56
2022-10-12T14:55:58.649Z,101180.81
2022-10-12T14:58:30.846Z,101179.09
2022-10-12T15:01:00.521Z,101177.75
2022-10-12T15:03:30.184Z,101179.63
2022-10-12T15:05:59.730Z,101180.03
2022-10-12T15:08:29.323Z,101176.00
2022-10-12T15:10:58.926Z,101186.63
2022-10-12T15:13:31.167Z,101180.47
2022-10-12T15:16:02.179Z,101176.19
2022-10-12T15:18:31.940Z,101175.47
2022-10-12T15:21:01.511Z,101175.97
2022-10-12T15:23:31.046Z,101166.50
2022-10-12T15:29:48.410Z,101164.88
2022-10-12T15:32:19.578Z,101171.44
2022-10-12T15:34:50.735Z,101162.94
2022-10-12T15:37:20.692Z,101170.22
2022-10-12T15:39:50.226Z,101179.81
2022-10-12T15:42:19.765Z,101171.94
2022-10-12T15:44:51.901Z,101168.59
2022-10-12T15:47:21.463Z,101168.06
2022-10-12T15:49:51.058Z,101161.44
2022-10-12T15:52:20.716Z,101162.69
2022-10-12T15:54:50.293Z,101159.47
2022-10-12T15:57:19.806Z,101161.53
2022-10-12T15:59:53.293Z,101147.09
2022-10-12T16:02:23.977Z,101143.13
2022-10-12T16:04:53.485Z,101127.41
2022-10-12T16:07:23.907Z,101125.78
2022-10-12T16:09:53.417Z,101115.41
2022-10-12T16:12:23.231Z,101121.63
2022-10-12T16:14:55.364Z,101124.22
2022-10-12T16:17:24.893Z,101123.66
2022-10-12T16:19:54.833Z,101123.03
2022-10-12T16:22:24.382Z,101119.66
2022-10-12T16:24:53.934Z,101118.31
2022-10-12T16:27:23.460Z,101125.81
2022-10-12T16:29:55.579Z,101127.59
2022-10-12T16:32:25.157Z,101117.22
2022-10-12T16:34:54.714Z,101126.25
2022-10-12T16:37:24.322Z,101113.28
2022-10-12T16:39:55.839Z,101123.19
2022-10-12T16:42:25.952Z,101121.59
2022-10-12T16:44:58.108Z,101118.38
2022-10-12T16:47:27.798Z,101117.69
2022-10-12T16:49:57.693Z,101124.97
2022-10-12T16:52:28.129Z,101124.97
2022-10-12T16:54:58.500Z,101127.97
2022-10-12T16:57:28.137Z,101142.31
2022-10-12T17:00:00.787Z,101144.22
2022-10-12T17:02:30.545Z,101136.97
2022-10-12T17:05:00.200Z,101161.00
2022-10-12T17:07:29.851Z,101149.56
2022-10-12T17:09:59.674Z,101144.41
2022-10-12T17:12:29.669Z,101160.75
2022-10-12T17:15:01.902Z,101167.06
2022-10-12T17:17:31.523Z,101150.66
2022-10-12T17:22:32.175Z,101159.13
2022-10-12T17:25:01.662Z,101162.97
2022-10-12T17:27:32.412Z,101180.94
2022-10-12T17:30:04.691Z,101177.59
2022-10-12T17:32:37.786Z,101178.69
2022-10-12T17:35:08.343Z,101176.44
2022-10-12T17:37:37.991Z,101182.75
2022-10-12T17:40:12.991Z,101185.56
2022-10-12T17:42:42.513Z,101178.78
2022-10-12T17:45:14.911Z,101183.44
2022-10-12T17:47:44.579Z,101179.31
2022-10-12T17:50:14.285Z,101180.41
2022-10-12T17:52:44.134Z,101175.19
2022-10-12T17:55:29.934Z,101176.19
2022-10-12T17:58:03.335Z,101174.66
2022-10-12T18:00:35.561Z,101187.94
2022-10-12T18:03:05.156Z,101184.53
2022-10-12T18:05:36.830Z,101176.72
2022-10-12T18:08:06.489Z,101184.81
2022-10-12T18:10:36.081Z,101174.28
2022-10-12T18:13:05.825Z,101168.44
2022-10-12T18:15:38.145Z,101153.69
2022-10-12T18:18:10.510Z,101148.53
2022-10-12T18:20:44.601Z,101167.03
2022-10-12T18:23:14.215Z,101163.75
2022-10-12T18:25:46.437Z,101170.72
2022-10-12T18:28:16.839Z,101163.88
2022-10-12T18:30:53.631Z,101171.06
2022-10-12T18:33:23.210Z,101178.47
2022-10-12T18:35:52.908Z,101180.38
2022-10-12T18:38:23.016Z,101180.53
2022-10-12T18:40:52.523Z,101182.53
2022-10-12T18:43:22.107Z,101185.38
2022-10-12T18:45:57.890Z,101192.66
2022-10-12T18:48:27.470Z,101195.41
2022-10-12T18:50:57.593Z,101181.56
2022-10-12T18:53:28.142Z,101179.78
2022-10-12T18:55:57.792Z,101180.94
2022-10-12T18:58:27.304Z,101180.41
2022-10-12T19:00:59.635Z,101169.06
2022-10-12T19:03:29.469Z,101176.25
2022-10-12T19:06:07.426Z,101183.47
2022-10-12T19:08:37.075Z,101173.03
2022-10-12T19:11:08.648Z,101175.72
2022-10-12T19:13:38.729Z,101174.09
2022-10-12T19:16:13.935Z,101177.78
2022-10-12T19:18:43.835Z,101179.91
2022-10-12T19:21:14.923Z,101176.66
2022-10-12T19:23:44.768Z,101176.78
2022-10-12T19:26:15.651Z,101170.72
2022-10-12T19:28:45.362Z,101172.63
2022-10-12T19:31:20.508Z,101162.13
2022-10-12T19:33:50.646Z,101156.94
2022-10-12T19:36:21.005Z,101153.44
2022-10-12T19:38:50.651Z,101147.25
2022-10-12T19:41:20.187Z,101150.78
2022-10-12T19:43:49.724Z,101149.13
2022-10-12T19:46:22.411Z,101155.69
2022-10-12T19:48:52.787Z,101149.66
2022-10-12T19:51:24.008Z,101148.88
2022-10-12T19:53:56.152Z,101142.00
2022-10-12T19:56:26.320Z,101127.19
2022-10-12T19:58:57.663Z,101131.78
2022-10-12T20:01:32.058Z,101128.28
2022-10-12T20:04:01.805Z,101137.91
2022-10-12T20:06:32.897Z,101135.22
2022-10-12T20:09:03.827Z,101131.78
2022-10-12T20:11:33.662Z,101138.00
2022-10-12T20:14:03.383Z,101136.31
2022-10-12T20:16:35.746Z,101132.75
2022-10-12T20:19:05.610Z,101136.31
2022-10-12T20:21:36.432Z,101133.22
2022-10-12T20:24:06.234Z,101126.19
2022-10-12T20:26:36.058Z,101133.41
2022-10-12T20:29:05.628Z,101133.50
2022-10-12T20:31:37.837Z,101134.47
2022-10-12T20:34:07.354Z,101141.63
2022-10-12T20:36:36.925Z,101138.31
2022-10-12T20:39:06.575Z,101141.13
2022-10-12T20:41:36.321Z,101136.00
2022-10-12T20:44:05.870Z,101129.94
2022-10-12T20:46:38.026Z,101139.56
2022-10-12T20:49:08.048Z,101147.56
2022-10-12T20:51:39.993Z,101144.16
2022-10-12T20:54:09.529Z,101142.59
2022-10-12T20:56:43.476Z,101143.56
2022-10-12T20:59:13.556Z,101145.44
2022-10-12T21:01:45.682Z,101134.06
2022-10-12T21:04:15.294Z,101137.75
2022-10-12T21:06:44.868Z,101136.06
2022-10-12T21:09:16.803Z,101135.53
2022-10-12T21:11:46.360Z,101144.44
2022-10-12T21:14:16.707Z,101133.38
2022-10-12T21:16:48.906Z,101134.97
2022-10-12T21:19:19.229Z,101127.94
2022-10-12T21:21:49.062Z,101132.28
2022-10-12T21:24:18.890Z,101131.72
2022-10-12T21:26:48.635Z,101126.50
2022-10-12T21:29:18.164Z,101122.19
2022-10-12T21:31:50.361Z,101125.00
2022-10-12T21:34:20.116Z,101120.63
2022-10-12T21:36:49.632Z,101119.81
2022-10-12T21:39:20.618Z,101124.38
2022-10-12T21:41:50.162Z,101121.00
2022-10-12T21:44:19.934Z,101122.81
2022-10-12T21:46:52.116Z,101129.28
2022-10-12T21:49:21.616Z,101127.47
2022-10-12T21:51:51.224Z,101131.94
2022-10-12T21:54:20.771Z,101131.06
2022-10-12T21:56:50.292Z,101124.91
2022-10-12T21:59:19.828Z,101127.63
2022-10-12T22:01:51.964Z,101122.47
2022-10-12T22:04:21.530Z,101119.78
2022-10-12T22:06:51.043Z,101123.19
2022-10-12T22:09:20.605Z,101122.47
2022-10-12T22:11:50.348Z,101125.09
2022-10-12T22:14:21.559Z,101111.09
2022-10-12T22:16:53.787Z,101121.59
2022-10-12T22:19:23.623Z,101126.97
2022-10-12T22:21:54.507Z,101128.59
2022-10-12T22:24:30.021Z,101118.13
2022-10-12T22:26:59.643Z,101126.06
2022-10-12T22:29:29.279Z,101119.28
2022-10-12T22:32:01.410Z,101113.22
2022-10-12T22:34:31.270Z,101109.72
2022-10-12T22:37:00.820Z,101108.81
2022-10-12T22:39:30.352Z,101099.22
2022-10-12T22:41:59.904Z,101104.38
2022-10-12T22:44:29.431Z,101100.78
2022-10-12T22:47:02.558Z,101099.88
2022-10-12T22:49:32.132Z,101105.75
2022-10-12T22:52:01.733Z,101096.91
2022-10-12T22:54:33.138Z,101095.78
2022-10-12T22:57:02.694Z,101098.25
2022-10-12T22:59:32.726Z,101090.03
2022-10-12T23:02:04.810Z,101093.44
2022-10-12T23:04:37.075Z,101090.91
2022-10-12T23:07:06.697Z,101098.78
2022-10-12T23:09:36.384Z,101089.13
2022-10-12T23:12:06.085Z,101077.75
2022-10-12T23:14:35.860Z,101081.28
2022-10-12T23:17:08.028Z,101089.13
2022-10-12T23:19:37.554Z,101083.13
2022-10-12T23:22:07.631Z,101080.50
2022-10-12T23:24:37.179Z,101085.53
2022-10-12T23:27:06.883Z,101079.38
2022-10-12T23:29:36.461Z,101075.81
2022-10-12T23:32:08.728Z,101069.44
2022-10-12T23:34:38.251Z,101078.00
2022-10-12T23:37:08.238Z,101073.28
2022-10-12T23:39:38.093Z,101071.16
2022-10-12T23:42:07.725Z,101067.16
2022-10-12T23:44:37.245Z,101066.88
2022-10-12T23:47:09.375Z,101071.69
2022-10-12T23:49:39.069Z,101073.19
2022-10-12T23:52:09.141Z,101068.22
2022-10-12T23:54:38.650Z,101072.47
2022-10-12T23:57:22.519Z,101067.91
2022-10-12T23:59:52.162Z,101065.03
